sensor_id;sensor_type;location;lat;lon;timestamp;pressure;altitude;pressure_sealevel;temperature;humidity
34482;BME280;20720;48.886;9.388;2022-08-19T00:01:07;97830.09;;;23.83;100.00
34482;BME280;20720;48.886;9.388;2022-08-19T00:03:32;97820.34;;;23.87;100.00
34482;BME280;20720;48.886;9.388;2022-08-19T00:05:57;97832.69;;;23.88;100.00
34482;BME280;20720;48.886;9.388;2022-08-19T00:08:23;97822.34;;;23.95;100.00
34482;BME280;20720;48.886;9.388;2022-08-19T00:10:48;97838.13;;;23.83;100.00
34482;BME280;20720;48.886;9.388;2022-08-19T00:13:13;97830.69;;;23.80;100.00
34482;BME280;20720;48.886;9.388;2022-08-19T00:15:39;97823.94;;;23.82;100.00
34482;BME280;20720;48.886;9.388;2022-08-19T00:18:04;97821.75;;;23.71;100.00
34482;BME280;20720;48.886;9.388;2022-08-19T00:20:29;97831.75;;;23.65;100.00
34482;BME280;20720;48.886;9.388;2022-08-19T00:22:54;97827.13;;;23.39;100.00
34482;BME280;20720;48.886;9.388;2022-08-19T00:25:20;97833.00;;;23.41;100.00
34482;BME280;20720;48.886;9.388;2022-08-19T00:27:45;97821.47;;;23.40;100.00
34482;BME280;20720;48.886;9.388;2022-08-19T00:30:12;97819.59;;;23.41;100.00
34482;BME280;20720;48.886;9.388;2022-08-19T00:32:38;97821.34;;;23.64;100.00
34482;BME280;20720;48.886;9.388;2022-08-19T00:35:04;97823.47;;;23.48;100.00
34482;BME280;20720;48.886;9.388;2022-08-19T00:37:29;97813.56;;;23.49;100.00
34482;BME280;20720;48.886;9.388;2022-08-19T00:39:55;97819.56;;;23.73;100.00
34482;BME280;20720;48.886;9.388;2022-08-19T00:42:21;97812.03;;;23.88;100.00
34482;BME280;20720;48.886;9.388;2022-08-19T00:44:47;97807.66;;;23.79;100.00
34482;BME280;20720;48.886;9.388;2022-08-19T00:47:12;97811.22;;;23.74;100.00
34482;BME280;20720;48.886;9.388;2022-08-19T00:49:40;97808.34;;;23.39;100.00
34482;BME280;20720;48.886;9.388;2022-08-19T00:52:07;97807.94;;;23.31;100.00
34482;BME280;20720;48.886;9.388;2022-08-19T00:54:34;97805.97;;;23.37;100.00
34482;BME280;20720;48.886;9.388;2022-08-19T00:56:59;97796.75;;;23.24;100.00
34482;BME280;20720;48.886;9.388;2022-08-19T00:59:26;97806.59;;;23.48;100.00
34482;BME280;20720;48.886;9.388;2022-08-19T01:01:52;97796.94;;;23.14;100.00
34482;BME280;20720;48.886;9.388;2022-08-19T01:04:17;97797.09;;;23.04;100.00
34482;BME280;20720;48.886;9.388;2022-08-19T01:06:44;97805.78;;;23.47;100.00
34482;BME280;20720;48.886;9.388;2022-08-19T01:09:10;97819.81;;;23.58;100.00
34482;BME280;20720;48.886;9.388;2022-08-19T01:11:36;97819.44;;;23.32;100.00
34482;BME280;20720;48.886;9.388;2022-08-19T01:16:28;97806.56;;;23.15;100.00
34482;BME280;20720;48.886;9.388;2022-08-19T01:18:54;97794.31;;;23.09;100.00
34482;BME280;20720;48.886;9.388;2022-08-19T01:23:46;97812.19;;;23.32;100.00
34482;BME280;20720;48.886;9.388;2022-08-19T01:26:14;97787.44;;;23.03;100.00
34482;BME280;20720;48.886;9.388;2022-08-19T01:28:41;97787.59;;;23.12;100.00
34482;BME280;20720;48.886;9.388;2022-08-19T01:31:08;97779.38;;;23.03;100.00
34482;BME280;20720;48.886;9.388;2022-08-19T01:33:36;97790.00;;;23.27;100.00
34482;BME280;20720;48.886;9.388;2022-08-19T01:36:09;97791.25;;;23.34;100.00
34482;BME280;20720;48.886;9.388;2022-08-19T01:38:36;97781.41;;;23.11;100.00
34482;BME280;20720;48.886;9.388;2022-08-19T01:41:02;97768.97;;;23.02;100.00
34482;BME280;20720;48.886;9.388;2022-08-19T01:43:27;97771.28;;;23.08;100.00
34482;BME280;20720;48.886;9.388;2022-08-19T01:45:52;97783.72;;;23.37;100.00
34482;BME280;20720;48.886;9.388;2022-08-19T01:48:18;97777.47;;;22.90;100.00
34482;BME280;20720;48.886;9.388;2022-08-19T01:50:43;97782.72;;;23.14;100.00
34482;BME280;20720;48.886;9.388;2022-08-19T01:53:09;97789.00;;;23.23;100.00
34482;BME280;20720;48.886;9.388;2022-08-19T01:55:36;97775.78;;;22.94;100.00
34482;BME280;20720;48.886;9.388;2022-08-19T01:58:02;97774.94;;;22.99;100.00
34482;BME280;20720;48.886;9.388;2022-08-19T02:00:29;97771.50;;;23.12;100.00
34482;BME280;20720;48.886;9.388;2022-08-19T02:02:55;97773.34;;;23.30;100.00
34482;BME280;20720;48.886;9.388;2022-08-19T02:05:20;97782.84;;;23.22;100.00
34482;BME280;20720;48.886;9.388;2022-08-19T02:07:46;97772.53;;;22.97;100.00
34482;BME280;20720;48.886;9.388;2022-08-19T02:10:14;97790.38;;;23.20;100.00
34482;BME280;20720;48.886;9.388;2022-08-19T02:12:39;97790.81;;;23.27;100.00
34482;BME280;20720;48.886;9.388;2022-08-19T02:15:05;97794.00;;;23.29;100.00
34482;BME280;20720;48.886;9.388;2022-08-19T02:17:31;97780.69;;;23.06;100.00
34482;BME280;20720;48.886;9.388;2022-08-19T02:19:56;97774.38;;;23.15;100.00
34482;BME280;20720;48.886;9.388;2022-08-19T02:22:22;97778.66;;;23.16;100.00
34482;BME280;20720;48.886;9.388;2022-08-19T02:24:47;97776.22;;;23.01;100.00
34482;BME280;20720;48.886;9.388;2022-08-19T02:27:13;97770.47;;;22.57;100.00
34482;BME280;20720;48.886;9.388;2022-08-19T02:29:38;97774.25;;;22.51;100.00
34482;BME280;20720;48.886;9.388;2022-08-19T02:32:03;97767.19;;;22.60;100.00
34482;BME280;20720;48.886;9.388;2022-08-19T02:34:29;97765.00;;;22.43;100.00
34482;BME280;20720;48.886;9.388;2022-08-19T02:36:54;97765.72;;;22.49;100.00
34482;BME280;20720;48.886;9.388;2022-08-19T02:39:19;97745.31;;;22.34;100.00
34482;BME280;20720;48.886;9.388;2022-08-19T02:41:44;97749.22;;;22.79;100.00
34482;BME280;20720;48.886;9.388;2022-08-19T02:44:09;97751.63;;;22.81;100.00
34482;BME280;20720;48.886;9.388;2022-08-19T02:46:35;97751.56;;;22.67;100.00
34482;BME280;20720;48.886;9.388;2022-08-19T02:49:03;97735.97;;;22.69;100.00
34482;BME280;20720;48.886;9.388;2022-08-19T02:51:31;97739.47;;;22.70;100.00
34482;BME280;20720;48.886;9.388;2022-08-19T02:53:56;97740.81;;;22.48;100.00
34482;BME280;20720;48.886;9.388;2022-08-19T02:56:22;97734.69;;;22.48;100.00
34482;BME280;20720;48.886;9.388;2022-08-19T02:58:49;97732.78;;;22.30;100.00
34482;BME280;20720;48.886;9.388;2022-08-19T03:01:24;97717.91;;;22.61;100.00
34482;BME280;20720;48.886;9.388;2022-08-19T03:03:50;97724.03;;;22.62;100.00
34482;BME280;20720;48.886;9.388;2022-08-19T03:06:16;97729.25;;;22.72;100.00
34482;BME280;20720;48.886;9.388;2022-08-19T03:08:42;97731.22;;;22.66;100.00
34482;BME280;20720;48.886;9.388;2022-08-19T03:11:17;97722.97;;;22.44;100.00
34482;BME280;20720;48.886;9.388;2022-08-19T03:13:43;97733.28;;;22.51;100.00
34482;BME280;20720;48.886;9.388;2022-08-19T03:16:08;97735.00;;;22.65;100.00
34482;BME280;20720;48.886;9.388;2022-08-19T03:18:34;97737.09;;;22.68;100.00
34482;BME280;20720;48.886;9.388;2022-08-19T03:20:59;97732.59;;;22.64;100.00
34482;BME280;20720;48.886;9.388;2022-08-19T03:23:25;97740.63;;;22.64;100.00
34482;BME280;20720;48.886;9.388;2022-08-19T03:25:50;97733.22;;;22.56;100.00
34482;BME280;20720;48.886;9.388;2022-08-19T03:28:16;97742.41;;;22.50;100.00
34482;BME280;20720;48.886;9.388;2022-08-19T03:30:42;97739.25;;;22.48;100.00
34482;BME280;20720;48.886;9.388;2022-08-19T03:33:09;97738.50;;;22.42;100.00
34482;BME280;20720;48.886;9.388;2022-08-19T03:35:34;97743.22;;;22.50;100.00
34482;BME280;20720;48.886;9.388;2022-08-19T03:38:01;97746.47;;;22.47;100.00
34482;BME280;20720;48.886;9.388;2022-08-19T03:40:27;97734.38;;;22.31;100.00
34482;BME280;20720;48.886;9.388;2022-08-19T03:42:52;97736.56;;;22.29;100.00
34482;BME280;20720;48.886;9.388;2022-08-19T03:45:17;97720.81;;;22.04;100.00
34482;BME280;20720;48.886;9.388;2022-08-19T03:47:42;97718.94;;;22.04;100.00
34482;BME280;20720;48.886;9.388;2022-08-19T03:50:07;97701.25;;;21.61;100.00
34482;BME280;20720;48.886;9.388;2022-08-19T03:52:33;97687.63;;;21.58;100.00
34482;BME280;20720;48.886;9.388;2022-08-19T03:54:59;97679.84;;;21.37;100.00
34482;BME280;20720;48.886;9.388;2022-08-19T03:57:24;97684.50;;;21.98;100.00
34482;BME280;20720;48.886;9.388;2022-08-19T03:59:49;97700.22;;;22.23;100.00
34482;BME280;20720;48.886;9.388;2022-08-19T04:02:14;97721.66;;;22.23;100.00
34482;BME280;20720;48.886;9.388;2022-08-19T04:04:40;97720.13;;;22.17;100.00
34482;BME280;20720;48.886;9.388;2022-08-19T04:07:06;97728.56;;;22.24;100.00
34482;BME280;20720;48.886;9.388;2022-08-19T04:09:33;97728.34;;;22.20;100.00
34482;BME280;20720;48.886;9.388;2022-08-19T04:11:58;97730.41;;;22.28;100.00
34482;BME280;20720;48.886;9.388;2022-08-19T04:14:25;97725.25;;;22.32;100.00
34482;BME280;20720;48.886;9.388;2022-08-19T04:16:51;97709.78;;;22.29;100.00
34482;BME280;20720;48.886;9.388;2022-08-19T04:19:17;97723.53;;;22.41;100.00
34482;BME280;20720;48.886;9.388;2022-08-19T04:21:43;97716.41;;;22.13;100.00
34482;BME280;20720;48.886;9.388;2022-08-19T04:24:09;97714.94;;;22.25;100.00
34482;BME280;20720;48.886;9.388;2022-08-19T04:26:35;97721.66;;;22.23;100.00
34482;BME280;20720;48.886;9.388;2022-08-19T04:29:03;97711.75;;;22.23;100.00
34482;BME280;20720;48.886;9.388;2022-08-19T04:31:29;97716.16;;;22.33;100.00
34482;BME280;20720;48.886;9.388;2022-08-19T04:33:58;97719.81;;;22.37;100.00
34482;BME280;20720;48.886;9.388;2022-08-19T04:36:25;97719.19;;;22.45;100.00
34482;BME280;20720;48.886;9.388;2022-08-19T04:38:53;97712.38;;;22.34;100.00
34482;BME280;20720;48.886;9.388;2022-08-19T04:41:19;97713.03;;;22.26;100.00
34482;BME280;20720;48.886;9.388;2022-08-19T04:44:03;97719.25;;;22.21;100.00
34482;BME280;20720;48.886;9.388;2022-08-19T04:46:28;97720.69;;;22.14;100.00
34482;BME280;20720;48.886;9.388;2022-08-19T04:48:55;97724.25;;;22.28;100.00
34482;BME280;20720;48.886;9.388;2022-08-19T04:51:21;97723.91;;;22.34;100.00
34482;BME280;20720;48.886;9.388;2022-08-19T04:53:46;97721.66;;;22.23;100.00
34482;BME280;20720;48.886;9.388;2022-08-19T04:56:13;97709.28;;;22.27;100.00
34482;BME280;20720;48.886;9.388;2022-08-19T04:58:39;97723.38;;;22.32;100.00
34482;BME280;20720;48.886;9.388;2022-08-19T05:01:07;97723.31;;;22.37;100.00
34482;BME280;20720;48.886;9.388;2022-08-19T05:03:33;97731.03;;;22.20;100.00
34482;BME280;20720;48.886;9.388;2022-08-19T05:06:05;97738.13;;;22.30;100.00
34482;BME280;20720;48.886;9.388;2022-08-19T05:08:32;97745.09;;;22.31;100.00
34482;BME280;20720;48.886;9.388;2022-08-19T05:10:58;97746.25;;;22.43;100.00
34482;BME280;20720;48.886;9.388;2022-08-19T05:13:23;97757.81;;;22.39;100.00
34482;BME280;20720;48.886;9.388;2022-08-19T05:15:54;97766.22;;;22.51;100.00
34482;BME280;20720;48.886;9.388;2022-08-19T05:18:19;97779.69;;;22.46;100.00
34482;BME280;20720;48.886;9.388;2022-08-19T05:21:20;97779.31;;;22.34;100.00
34482;BME280;20720;48.886;9.388;2022-08-19T05:24:04;97790.34;;;22.51;100.00
34482;BME280;20720;48.886;9.388;2022-08-19T05:26:34;97794.84;;;22.56;100.00
34482;BME280;20720;48.886;9.388;2022-08-19T05:28:59;97804.34;;;22.43;100.00
34482;BME280;20720;48.886;9.388;2022-08-19T05:31:24;97812.03;;;22.50;100.00
34482;BME280;20720;48.886;9.388;2022-08-19T05:33:49;97817.19;;;22.46;100.00
34482;BME280;20720;48.886;9.388;2022-08-19T05:36:15;97821.66;;;22.51;100.00
34482;BME280;20720;48.886;9.388;2022-08-19T05:38:40;97824.81;;;22.34;100.00
34482;BME280;20720;48.886;9.388;2022-08-19T05:41:06;97826.91;;;22.37;100.00
34482;BME280;20720;48.886;9.388;2022-08-19T05:43:32;97819.59;;;22.24;100.00
34482;BME280;20720;48.886;9.388;2022-08-19T05:45:58;97833.22;;;22.27;100.00
34482;BME280;20720;48.886;9.388;2022-08-19T05:48:23;97843.38;;;22.49;100.00
34482;BME280;20720;48.886;9.388;2022-08-19T05:50:48;97842.69;;;22.62;100.00
34482;BME280;20720;48.886;9.388;2022-08-19T05:53:15;97843.28;;;22.59;100.00
34482;BME280;20720;48.886;9.388;2022-08-19T05:55:41;97847.50;;;22.65;100.00
34482;BME280;20720;48.886;9.388;2022-08-19T05:58:06;97847.25;;;22.62;100.00
34482;BME280;20720;48.886;9.388;2022-08-19T06:00:35;97848.22;;;22.47;100.00
34482;BME280;20720;48.886;9.388;2022-08-19T06:03:00;97849.66;;;22.63;100.00
34482;BME280;20720;48.886;9.388;2022-08-19T06:05:31;97863.28;;;22.85;100.00
34482;BME280;20720;48.886;9.388;2022-08-19T06:07:57;97857.72;;;22.82;100.00
34482;BME280;20720;48.886;9.388;2022-08-19T06:10:23;97858.66;;;22.72;100.00
34482;BME280;20720;48.886;9.388;2022-08-19T06:12:48;97870.59;;;22.80;100.00
34482;BME280;20720;48.886;9.388;2022-08-19T06:15:14;97861.97;;;22.83;100.00
34482;BME280;20720;48.886;9.388;2022-08-19T06:17:39;97855.38;;;22.94;100.00
34482;BME280;20720;48.886;9.388;2022-08-19T06:20:07;97855.59;;;22.79;100.00
34482;BME280;20720;48.886;9.388;2022-08-19T06:22:51;97848.88;;;22.81;100.00
34482;BME280;20720;48.886;9.388;2022-08-19T06:25:17;97851.13;;;22.74;100.00
34482;BME280;20720;48.886;9.388;2022-08-19T06:27:42;97852.69;;;22.75;100.00
34482;BME280;20720;48.886;9.388;2022-08-19T06:30:08;97853.88;;;23.06;100.00
34482;BME280;20720;48.886;9.388;2022-08-19T06:32:33;97851.03;;;22.98;100.00
34482;BME280;20720;48.886;9.388;2022-08-19T06:34:58;97858.13;;;23.07;100.00
34482;BME280;20720;48.886;9.388;2022-08-19T06:37:23;97856.59;;;23.01;100.00
34482;BME280;20720;48.886;9.388;2022-08-19T06:39:49;97864.94;;;23.00;100.00
34482;BME280;20720;48.886;9.388;2022-08-19T06:42:14;97860.97;;;22.97;100.00
34482;BME280;20720;48.886;9.388;2022-08-19T06:44:41;97867.72;;;22.95;100.00
34482;BME280;20720;48.886;9.388;2022-08-19T06:47:07;97864.53;;;23.30;100.00
34482;BME280;20720;48.886;9.388;2022-08-19T06:49:33;97870.59;;;23.17;100.00
34482;BME280;20720;48.886;9.388;2022-08-19T06:51:59;97869.75;;;23.03;100.00
34482;BME280;20720;48.886;9.388;2022-08-19T06:54:24;97857.91;;;23.22;100.00
34482;BME280;20720;48.886;9.388;2022-08-19T06:56:50;97864.00;;;23.09;100.00
34482;BME280;20720;48.886;9.388;2022-08-19T06:59:17;97877.53;;;23.55;100.00
34482;BME280;20720;48.886;9.388;2022-08-19T07:01:47;97882.69;;;23.52;100.00
34482;BME280;20720;48.886;9.388;2022-08-19T07:04:17;97874.56;;;23.57;100.00
34482;BME280;20720;48.886;9.388;2022-08-19T07:06:43;97879.97;;;23.70;100.00
34482;BME280;20720;48.886;9.388;2022-08-19T07:09:09;97877.47;;;23.74;100.00
34482;BME280;20720;48.886;9.388;2022-08-19T07:11:34;97882.09;;;23.55;100.00
34482;BME280;20720;48.886;9.388;2022-08-19T07:14:00;97886.53;;;23.78;100.00
34482;BME280;20720;48.886;9.388;2022-08-19T07:16:26;97894.91;;;23.76;100.00
34482;BME280;20720;48.886;9.388;2022-08-19T07:18:52;97883.78;;;23.96;100.00
34482;BME280;20720;48.886;9.388;2022-08-19T07:21:21;97893.00;;;24.22;100.00
34482;BME280;20720;48.886;9.388;2022-08-19T07:23:47;97901.19;;;24.31;100.00
34482;BME280;20720;48.886;9.388;2022-08-19T07:26:17;97894.19;;;24.03;100.00
34482;BME280;20720;48.886;9.388;2022-08-19T07:28:44;97888.66;;;24.13;100.00
34482;BME280;20720;48.886;9.388;2022-08-19T07:31:11;97879.28;;;24.10;100.00
34482;BME280;20720;48.886;9.388;2022-08-19T07:33:37;97883.28;;;24.13;100.00
34482;BME280;20720;48.886;9.388;2022-08-19T07:36:06;97873.25;;;23.86;100.00
34482;BME280;20720;48.886;9.388;2022-08-19T07:38:32;97864.69;;;23.98;100.00
34482;BME280;20720;48.886;9.388;2022-08-19T07:40:57;97873.25;;;24.00;100.00
34482;BME280;20720;48.886;9.388;2022-08-19T07:43:23;97871.47;;;23.50;100.00
34482;BME280;20720;48.886;9.388;2022-08-19T07:45:50;97864.66;;;23.71;100.00
34482;BME280;20720;48.886;9.388;2022-08-19T07:48:15;97856.69;;;23.52;100.00
34482;BME280;20720;48.886;9.388;2022-08-19T07:50:40;97863.69;;;23.80;100.00
34482;BME280;20720;48.886;9.388;2022-08-19T07:53:05;97862.28;;;23.83;100.00
34482;BME280;20720;48.886;9.388;2022-08-19T07:55:31;97860.78;;;23.63;100.00
34482;BME280;20720;48.886;9.388;2022-08-19T07:57:56;97849.13;;;23.54;100.00
34482;BME280;20720;48.886;9.388;2022-08-19T08:00:21;97843.78;;;23.68;100.00
34482;BME280;20720;48.886;9.388;2022-08-19T08:02:46;97842.97;;;23.54;100.00
34482;BME280;20720;48.886;9.388;2022-08-19T08:05:12;97850.88;;;23.26;100.00
34482;BME280;20720;48.886;9.388;2022-08-19T08:07:55;97846.31;;;23.46;100.00
34482;BME280;20720;48.886;9.388;2022-08-19T08:10:39;97851.06;;;23.35;100.00
34482;BME280;20720;48.886;9.388;2022-08-19T08:13:04;97855.22;;;23.41;100.00
34482;BME280;20720;48.886;9.388;2022-08-19T08:15:30;97862.53;;;23.54;100.00
34482;BME280;20720;48.886;9.388;2022-08-19T08:17:55;97874.13;;;23.50;100.00
34482;BME280;20720;48.886;9.388;2022-08-19T08:20:22;97875.91;;;23.41;100.00
34482;BME280;20720;48.886;9.388;2022-08-19T08:22:48;97872.41;;;23.21;100.00
34482;BME280;20720;48.886;9.388;2022-08-19T08:25:32;97865.66;;;23.05;100.00
34482;BME280;20720;48.886;9.388;2022-08-19T08:27:57;97877.56;;;22.99;100.00
34482;BME280;20720;48.886;9.388;2022-08-19T08:30:25;97867.63;;;23.00;100.00
34482;BME280;20720;48.886;9.388;2022-08-19T08:32:51;97860.75;;;23.12;100.00
34482;BME280;20720;48.886;9.388;2022-08-19T08:35:17;97876.47;;;23.38;100.00
34482;BME280;20720;48.886;9.388;2022-08-19T08:37:43;97885.22;;;23.62;100.00
34482;BME280;20720;48.886;9.388;2022-08-19T08:42:57;97879.59;;;23.77;100.00
34482;BME280;20720;48.886;9.388;2022-08-19T08:45:25;97880.59;;;23.81;100.00
34482;BME280;20720;48.886;9.388;2022-08-19T08:47:51;97871.63;;;23.72;100.00
34482;BME280;20720;48.886;9.388;2022-08-19T08:50:35;97860.28;;;23.61;100.00
34482;BME280;20720;48.886;9.388;2022-08-19T08:53:03;97848.94;;;23.64;100.00
34482;BME280;20720;48.886;9.388;2022-08-19T08:55:30;97850.38;;;23.24;100.00
34482;BME280;20720;48.886;9.388;2022-08-19T08:57:59;97845.91;;;23.39;100.00
34482;BME280;20720;48.886;9.388;2022-08-19T09:00:34;97841.00;;;23.59;100.00
34482;BME280;20720;48.886;9.388;2022-08-19T09:02:59;97846.97;;;23.38;100.00
34482;BME280;20720;48.886;9.388;2022-08-19T09:05:47;97837.25;;;23.42;100.00
34482;BME280;20720;48.886;9.388;2022-08-19T09:08:17;97829.81;;;23.39;100.00
34482;BME280;20720;48.886;9.388;2022-08-19T09:10:49;97827.13;;;23.20;100.00
34482;BME280;20720;48.886;9.388;2022-08-19T09:13:20;97831.47;;;23.34;100.00
34482;BME280;20720;48.886;9.388;2022-08-19T09:15:52;97835.84;;;23.30;100.00
34482;BME280;20720;48.886;9.388;2022-08-19T09:18:20;97832.00;;;22.99;100.00
34482;BME280;20720;48.886;9.388;2022-08-19T09:20:45;97847.06;;;23.32;100.00
34482;BME280;20720;48.886;9.388;2022-08-19T09:23:12;97843.66;;;23.08;100.00
34482;BME280;20720;48.886;9.388;2022-08-19T09:25:37;97840.25;;;23.21;100.00
34482;BME280;20720;48.886;9.388;2022-08-19T09:28:05;97846.91;;;23.24;100.00
34482;BME280;20720;48.886;9.388;2022-08-19T09:30:32;97845.31;;;23.42;100.00
34482;BME280;20720;48.886;9.388;2022-08-19T09:32:58;97837.59;;;23.54;100.00
34482;BME280;20720;48.886;9.388;2022-08-19T09:35:24;97846.47;;;23.35;100.00
34482;BME280;20720;48.886;9.388;2022-08-19T09:37:50;97847.56;;;23.67;100.00
34482;BME280;20720;48.886;9.388;2022-08-19T09:40:16;97847.47;;;23.72;100.00
34482;BME280;20720;48.886;9.388;2022-08-19T09:42:42;97856.63;;;23.71;100.00
34482;BME280;20720;48.886;9.388;2022-08-19T09:45:08;97845.59;;;23.72;100.00
34482;BME280;20720;48.886;9.388;2022-08-19T09:47:34;97844.78;;;23.72;100.00
34482;BME280;20720;48.886;9.388;2022-08-19T09:50:02;97846.50;;;23.81;100.00
34482;BME280;20720;48.886;9.388;2022-08-19T09:52:28;97847.19;;;23.87;100.00
34482;BME280;20720;48.886;9.388;2022-08-19T09:54:53;97853.25;;;23.79;100.00
34482;BME280;20720;48.886;9.388;2022-08-19T09:57:18;97843.56;;;23.64;100.00
34482;BME280;20720;48.886;9.388;2022-08-19T09:59:43;97845.13;;;23.52;100.00
34482;BME280;20720;48.886;9.388;2022-08-19T10:02:09;97844.88;;;23.34;100.00
34482;BME280;20720;48.886;9.388;2022-08-19T10:04:35;97841.34;;;23.53;100.00
34482;BME280;20720;48.886;9.388;2022-08-19T10:07:19;97847.47;;;23.40;100.00
34482;BME280;20720;48.886;9.388;2022-08-19T10:09:44;97845.94;;;23.66;100.00
34482;BME280;20720;48.886;9.388;2022-08-19T10:12:09;97850.16;;;23.72;100.00
34482;BME280;20720;48.886;9.388;2022-08-19T10:14:35;97846.69;;;23.39;100.00
34482;BME280;20720;48.886;9.388;2022-08-19T10:17:00;97865.53;;;22.97;100.00
34482;BME280;20720;48.886;9.388;2022-08-19T10:19:27;97873.94;;;23.46;100.00
34482;BME280;20720;48.886;9.388;2022-08-19T10:21:57;97893.56;;;23.04;100.00
34482;BME280;20720;48.886;9.388;2022-08-19T10:24:22;97912.66;;;23.40;100.00
34482;BME280;20720;48.886;9.388;2022-08-19T10:26:49;97898.72;;;23.19;100.00
34482;BME280;20720;48.886;9.388;2022-08-19T10:29:14;97963.06;;;22.77;100.00
34482;BME280;20720;48.886;9.388;2022-08-19T10:31:41;97978.09;;;22.97;100.00
34482;BME280;20720;48.886;9.388;2022-08-19T10:34:06;97981.81;;;23.62;100.00
34482;BME280;20720;48.886;9.388;2022-08-19T10:36:33;98000.97;;;22.89;100.00
34482;BME280;20720;48.886;9.388;2022-08-19T10:39:00;97988.66;;;23.68;100.00
34482;BME280;20720;48.886;9.388;2022-08-19T10:41:27;97940.06;;;24.20;100.00
34482;BME280;20720;48.886;9.388;2022-08-19T10:43:54;97926.69;;;24.15;100.00
34482;BME280;20720;48.886;9.388;2022-08-19T10:46:20;97910.91;;;24.27;100.00
34482;BME280;20720;48.886;9.388;2022-08-19T10:48:46;97890.97;;;24.01;100.00
34482;BME280;20720;48.886;9.388;2022-08-19T10:51:11;97914.06;;;24.02;100.00
34482;BME280;20720;48.886;9.388;2022-08-19T10:53:56;97904.25;;;23.79;100.00
34482;BME280;20720;48.886;9.388;2022-08-19T10:56:21;97929.31;;;23.88;100.00
34482;BME280;20720;48.886;9.388;2022-08-19T10:59:05;97974.81;;;23.79;100.00
34482;BME280;20720;48.886;9.388;2022-08-19T11:01:31;97987.59;;;23.50;100.00
34482;BME280;20720;48.886;9.388;2022-08-19T11:03:57;98019.78;;;23.31;100.00
34482;BME280;20720;48.886;9.388;2022-08-19T11:06:23;98068.28;;;23.35;100.00
34482;BME280;20720;48.886;9.388;2022-08-19T11:08:50;98080.63;;;23.07;100.00
34482;BME280;20720;48.886;9.388;2022-08-19T11:11:15;98098.66;;;23.25;100.00
34482;BME280;20720;48.886;9.388;2022-08-19T11:13:41;98096.91;;;23.58;100.00
34482;BME280;20720;48.886;9.388;2022-08-19T11:16:08;98093.97;;;23.60;100.00
34482;BME280;20720;48.886;9.388;2022-08-19T11:18:37;98112.56;;;23.27;100.00
34482;BME280;20720;48.886;9.388;2022-08-19T11:21:09;98129.03;;;22.64;100.00
34482;BME280;20720;48.886;9.388;2022-08-19T11:23:35;98148.88;;;23.44;100.00
34482;BME280;20720;48.886;9.388;2022-08-19T11:26:00;98128.91;;;23.55;100.00
34482;BME280;20720;48.886;9.388;2022-08-19T11:28:26;98067.69;;;23.57;100.00
34482;BME280;20720;48.886;9.388;2022-08-19T11:30:51;98051.13;;;23.92;100.00
34482;BME280;20720;48.886;9.388;2022-08-19T11:33:16;98032.31;;;23.92;100.00
34482;BME280;20720;48.886;9.388;2022-08-19T11:35:42;98030.09;;;23.80;100.00
34482;BME280;20720;48.886;9.388;2022-08-19T11:38:07;98042.41;;;23.81;100.00
34482;BME280;20720;48.886;9.388;2022-08-19T11:40:32;98052.41;;;23.76;100.00
34482;BME280;20720;48.886;9.388;2022-08-19T11:42:58;98051.16;;;23.87;100.00
34482;BME280;20720;48.886;9.388;2022-08-19T11:45:24;98030.44;;;24.11;100.00
34482;BME280;20720;48.886;9.388;2022-08-19T11:47:49;98012.84;;;24.00;100.00
34482;BME280;20720;48.886;9.388;2022-08-19T11:50:15;97985.97;;;23.86;100.00
34482;BME280;20720;48.886;9.388;2022-08-19T11:52:40;97952.47;;;23.84;100.00
34482;BME280;20720;48.886;9.388;2022-08-19T11:55:05;97956.34;;;24.10;100.00
34482;BME280;20720;48.886;9.388;2022-08-19T11:57:31;97982.41;;;23.91;100.00
34482;BME280;20720;48.886;9.388;2022-08-19T11:59:56;97971.41;;;24.38;100.00
34482;BME280;20720;48.886;9.388;2022-08-19T12:02:21;97972.59;;;24.32;100.00
34482;BME280;20720;48.886;9.388;2022-08-19T12:04:48;97959.75;;;24.29;100.00
34482;BME280;20720;48.886;9.388;2022-08-19T12:07:13;97952.53;;;24.43;100.00
34482;BME280;20720;48.886;9.388;2022-08-19T12:09:38;97940.38;;;24.59;100.00
34482;BME280;20720;48.886;9.388;2022-08-19T12:12:04;97927.44;;;24.20;100.00
34482;BME280;20720;48.886;9.388;2022-08-19T12:14:29;97934.31;;;24.67;100.00
34482;BME280;20720;48.886;9.388;2022-08-19T12:16:55;97902.75;;;24.59;100.00
34482;BME280;20720;48.886;9.388;2022-08-19T12:19:20;97889.44;;;24.41;100.00
34482;BME280;20720;48.886;9.388;2022-08-19T12:21:46;97902.84;;;24.27;100.00
34482;BME280;20720;48.886;9.388;2022-08-19T12:24:11;97903.38;;;24.56;100.00
34482;BME280;20720;48.886;9.388;2022-08-19T12:26:37;97891.25;;;24.72;100.00
34482;BME280;20720;48.886;9.388;2022-08-19T12:29:02;97872.03;;;24.38;100.00
34482;BME280;20720;48.886;9.388;2022-08-19T12:31:28;97891.50;;;24.30;100.00
34482;BME280;20720;48.886;9.388;2022-08-19T12:33:53;97892.22;;;24.08;100.00
34482;BME280;20720;48.886;9.388;2022-08-19T12:36:19;97920.59;;;23.96;100.00
34482;BME280;20720;48.886;9.388;2022-08-19T12:38:45;97917.69;;;24.38;100.00
34482;BME280;20720;48.886;9.388;2022-08-19T12:41:12;97893.72;;;24.28;100.00
34482;BME280;20720;48.886;9.388;2022-08-19T12:43:38;97875.00;;;24.23;100.00
34482;BME280;20720;48.886;9.388;2022-08-19T12:46:03;97864.38;;;24.45;100.00
34482;BME280;20720;48.886;9.388;2022-08-19T12:48:29;97825.84;;;24.50;100.00
34482;BME280;20720;48.886;9.388;2022-08-19T12:50:54;97795.66;;;24.66;100.00
34482;BME280;20720;48.886;9.388;2022-08-19T12:53:19;97772.81;;;24.55;100.00
34482;BME280;20720;48.886;9.388;2022-08-19T12:55:45;97766.88;;;24.31;100.00